Time;durP1;ratioP1;P1;durP2;ratioP2;P2;SDS_P1;SDS_P2;PMS_P1;PMS_P2;Temp;Humidity;BMP_temperature;BMP_pressure;BME280_temperature;BME280_humidity;BME280_pressure;Samples;Min_cycle;Max_cycle;Signal;HPM_P1;HPM_P2
2022/05/23 00:02:00;;;;;;;4.00;3.60;;;;;;;11.66;100.00;96458.44;4968048;28;20328;-53
2022/05/23 00:04:28;;;;;;;4.43;4.13;;;;;;;11.50;100.00;96454.38;4965253;28;20796;-49
2022/05/23 00:06:57;;;;;;;3.70;3.50;;;;;;;11.51;100.00;96455.22;4968966;28;20225;-51
2022/05/23 00:09:29;;;;;;;4.93;3.20;;;;;;;11.38;100.00;96442.78;4930718;28;20530;-50
2022/05/23 00:11:57;;;;;;;3.53;3.33;;;;;;;11.38;100.00;96419.75;4968233;28;20631;-53
2022/05/23 00:14:26;;;;;;;4.20;3.57;;;;;;;11.36;100.00;96407.72;4939924;28;20234;-54
2022/05/23 00:16:54;;;;;;;3.67;3.47;;;;;;;11.37;100.00;96404.88;4967222;28;20252;-53
2022/05/23 00:19:22;;;;;;;3.03;2.93;;;;;;;11.44;100.00;96408.31;4964219;28;20789;-49
2022/05/23 00:21:51;;;;;;;3.27;3.07;;;;;;;11.48;100.00;96403.38;4967549;28;20292;-54
2022/05/23 00:24:20;;;;;;;3.40;3.20;;;;;;;11.49;100.00;96406.88;4930028;28;20276;-53
2022/05/23 00:26:50;;;;;;;3.23;2.97;;;;;;;11.61;100.00;96404.38;4967858;28;20229;-55
2022/05/23 00:29:20;;;;;;;5.37;3.30;;;;;;;11.81;100.00;96413.06;4940598;28;20324;-51
2022/05/23 00:37:20;;;;;;;2.80;2.70;;;;;;;12.31;100.00;96427.53;4962408;28;20720;-49
2022/05/23 00:39:48;;;;;;;2.87;2.67;;;;;;;12.41;100.00;96430.56;4968071;28;20279;-53
2022/05/23 00:45:07;;;;;;;3.20;3.00;;;;;;;12.29;100.00;96430.44;4945774;28;20226;-53
2022/05/23 00:47:35;;;;;;;3.20;2.90;;;;;;;12.30;100.00;96423.25;4942739;28;20474;-50
2022/05/23 00:50:04;;;;;;;3.03;2.83;;;;;;;12.37;100.00;96417.91;4970456;28;20306;-53
2022/05/23 00:52:35;;;;;;;4.03;3.73;;;;;;;12.38;100.00;96428.34;4966310;28;20408;-53
2022/05/23 00:55:08;;;;;;;3.60;3.40;;;;;;;12.41;100.00;96419.94;4951006;28;20572;-52
2022/05/23 00:57:40;;;;;;;3.03;2.93;;;;;;;12.45;100.00;96412.34;4969516;28;20228;-52
2022/05/23 01:00:11;;;;;;;3.23;3.07;;;;;;;12.36;100.00;96424.25;4949046;28;20321;-53
2022/05/23 01:02:39;;;;;;;3.20;3.10;;;;;;;12.38;100.00;96416.88;4968870;28;20300;-55
2022/05/23 01:05:09;;;;;;;3.20;2.90;;;;;;;12.35;100.00;96427.94;4962665;28;20527;-55
2022/05/23 01:07:37;;;;;;;3.10;2.90;;;;;;;12.44;100.00;96426.66;4967492;28;20295;-53
2022/05/23 01:10:09;;;;;;;3.30;3.10;;;;;;;12.40;100.00;96423.63;4966660;28;20649;-56
2022/05/23 01:12:40;;;;;;;3.70;3.40;;;;;;;12.52;100.00;96421.09;4932383;28;20953;-52
2022/05/23 01:15:18;;;;;;;3.70;3.23;;;;;;;12.54;100.00;96440.31;4964269;28;20348;-55
2022/05/23 01:17:46;;;;;;;3.63;3.17;;;;;;;12.58;100.00;96432.69;4945367;28;20280;-53
2022/05/23 01:20:14;;;;;;;2.87;2.77;;;;;;;12.60;100.00;96433.28;4965956;28;20229;-53
2022/05/23 01:22:50;;;;;;;3.20;3.00;;;;;;;12.69;100.00;96434.69;4966641;28;20646;-53
2022/05/23 01:25:26;;;;;;;2.80;2.70;;;;;;;12.81;100.00;96429.47;4966398;28;20229;-54
2022/05/23 01:27:55;;;;;;;2.93;2.83;;;;;;;12.99;100.00;96426.03;4934394;28;20597;-53
2022/05/23 01:30:23;;;;;;;2.83;2.73;;;;;;;13.19;100.00;96422.41;4965608;28;20297;-56
2022/05/23 01:32:51;;;;;;;2.10;2.07;;;;;;;13.21;100.00;96424.81;4945159;28;20214;-54
2022/05/23 01:35:19;;;;;;;3.40;3.20;;;;;;;13.35;100.00;96430.81;4966223;28;20317;-56
2022/05/23 01:37:48;;;;;;;2.87;2.73;;;;;;;13.30;100.00;96424.31;4969970;28;20213;-55
2022/05/23 01:40:17;;;;;;;3.10;2.80;;;;;;;13.35;100.00;96428.16;4966520;28;20493;-55
2022/05/23 01:42:47;;;;;;;2.97;2.77;;;;;;;13.39;100.00;96426.69;4935651;28;20213;-54
2022/05/23 01:45:19;;;;;;;2.73;2.63;;;;;;;13.36;100.00;96419.97;4967693;28;20374;-56
2022/05/23 01:47:47;;;;;;;3.63;3.40;;;;;;;13.31;100.00;96423.28;4950508;28;20855;-57
2022/05/23 01:50:15;;;;;;;3.07;2.80;;;;;;;13.30;100.00;96426.97;4965632;28;20301;-57
2022/05/23 01:52:44;;;;;;;2.77;2.57;;;;;;;13.29;100.00;96432.53;4970945;28;20333;-57
2022/05/23 01:55:12;;;;;;;3.70;3.33;;;;;;;13.31;100.00;96438.44;4965275;28;20312;-53
2022/05/23 01:57:40;;;;;;;2.83;2.63;;;;;;;13.36;100.00;96435.13;4933392;28;20372;-56
2022/05/23 02:02:57;;;;;;;3.50;3.03;;;;;;;13.26;100.00;96436.44;4971524;28;20446;-50
2022/05/23 02:05:26;;;;;;;3.37;2.90;;;;;;;13.18;100.00;96434.06;4944784;28;20236;-56
2022/05/23 02:07:55;;;;;;;3.20;3.00;;;;;;;13.18;100.00;96434.06;4969412;28;20213;-51
2022/05/23 02:10:24;;;;;;;3.50;3.20;;;;;;;13.00;100.00;96427.66;4968788;28;20346;-57
2022/05/23 02:12:52;;;;;;;3.27;3.07;;;;;;;13.01;100.00;96425.84;4938262;28;20288;-57
2022/05/23 02:15:22;;;;;;;4.10;3.80;;;;;;;13.01;100.00;96431.94;4966110;28;20840;-56
2022/05/23 02:17:50;;;;;;;2.87;2.70;;;;;;;12.89;100.00;96439.00;4970741;28;20289;-55
2022/05/23 02:20:19;;;;;;;3.53;3.30;;;;;;;12.66;100.00;96437.75;4942651;28;20311;-57
2022/05/23 02:22:47;;;;;;;3.13;2.93;;;;;;;12.71;100.00;96434.44;4965822;28;20321;-51
2022/05/23 02:25:29;;;;;;;3.97;3.47;;;;;;;12.49;100.00;96424.16;4893889;29;21148;-57
2022/05/23 02:27:57;;;;;;;3.20;2.97;;;;;;;12.45;100.00;96423.78;4899137;29;20367;-53
2022/05/23 02:30:27;;;;;;;3.13;2.93;;;;;;;12.43;100.00;96417.88;4876969;29;20428;-55
2022/05/23 02:32:55;;;;;;;6.77;3.67;;;;;;;12.30;100.00;96410.81;4909689;29;20207;-55
2022/05/23 02:35:23;;;;;;;3.97;3.20;;;;;;;12.37;100.00;96410.78;4876240;29;20247;-52
2022/05/23 02:37:52;;;;;;;3.37;2.63;;;;;;;12.08;100.00;96401.53;4907940;29;20846;-56
2022/05/23 02:40:20;;;;;;;3.70;3.07;;;;;;;11.96;100.00;96393.41;4904514;29;20955;-53
2022/05/23 02:42:48;;;;;;;3.17;2.87;;;;;;;11.92;100.00;96392.19;4909042;29;20696;-51
2022/05/23 02:45:17;;;;;;;3.33;3.03;;;;;;;11.74;100.00;96391.06;4864722;29;20258;-55
2022/05/23 02:47:46;;;;;;;3.33;3.13;;;;;;;11.67;100.00;96396.38;4907324;29;20294;-56
2022/05/23 02:50:15;;;;;;;3.57;3.37;;;;;;;11.60;100.00;96400.91;4880464;29;20529;-53
2022/05/23 02:52:44;;;;;;;2.70;2.50;;;;;;;11.66;100.00;96392.09;4906606;29;20280;-57
2022/05/23 02:55:13;;;;;;;4.00;3.30;;;;;;;11.82;100.00;96387.34;4907171;29;20319;-56
2022/05/23 02:57:41;;;;;;;3.47;3.17;;;;;;;11.61;100.00;96386.63;4965922;28;20238;-49
2022/05/23 03:00:11;;;;;;;3.00;2.90;;;;;;;11.61;100.00;96369.91;4923562;28;21170;-54
2022/05/23 03:05:26;;;;;;;3.43;3.23;;;;;;;11.62;100.00;96363.56;4936097;28;20229;-55
2022/05/23 03:07:55;;;;;;;3.60;3.30;;;;;;;11.39;100.00;96365.69;4964469;28;20309;-56
2022/05/23 03:10:23;;;;;;;3.63;3.33;;;;;;;11.31;100.00;96365.09;4964682;28;20325;-51
2022/05/23 03:12:51;;;;;;;3.77;3.47;;;;;;;11.23;100.00;96371.44;4967234;28;20206;-57
2022/05/23 03:15:20;;;;;;;3.50;3.30;;;;;;;11.23;100.00;96372.25;4941346;28;20257;-55
2022/05/23 03:17:48;;;;;;;3.20;3.00;;;;;;;11.28;100.00;96367.16;4956823;28;20217;-56
2022/05/23 03:20:17;;;;;;;4.40;4.00;;;;;;;11.49;100.00;96359.91;4957598;28;20284;-52
2022/05/23 03:28:19;;;;;;;4.07;3.40;;;;;;;11.84;100.00;96337.53;4964925;28;20289;-50
2022/05/23 03:30:48;;;;;;;3.60;3.40;;;;;;;11.88;100.00;96334.22;4957874;28;20218;-53
2022/05/23 03:33:17;;;;;;;4.10;3.47;;;;;;;11.86;100.00;96338.94;4924471;28;20237;-49
2022/05/23 03:35:46;;;;;;;3.43;3.23;;;;;;;11.78;100.00;96333.06;4939094;28;20273;-55
2022/05/23 03:38:16;;;;;;;3.57;3.37;;;;;;;11.73;100.00;96331.03;4963122;28;20246;-51
2022/05/23 03:40:44;;;;;;;3.50;3.10;;;;;;;11.82;100.00;96332.41;4964799;28;20292;-50
2022/05/23 03:43:14;;;;;;;3.90;3.60;;;;;;;11.95;100.00;96330.72;4967408;28;20316;-50
2022/05/23 03:45:43;;;;;;;3.70;3.40;;;;;;;11.82;100.00;96329.75;4962916;28;20832;-47
2022/05/23 03:48:12;;;;;;;3.40;3.20;;;;;;;11.99;100.00;96326.63;4925734;28;20221;-52
2022/05/23 03:50:41;;;;;;;3.30;3.10;;;;;;;11.91;100.00;96326.84;4934496;28;20628;-52
2022/05/23 03:53:09;;;;;;;4.33;3.33;;;;;;;11.90;100.00;96322.56;4967812;28;20681;-49
2022/05/23 03:55:39;;;;;;;3.80;3.60;;;;;;;12.07;100.00;96325.56;4948610;28;20450;-52
2022/05/23 03:58:07;;;;;;;3.73;3.43;;;;;;;12.06;100.00;96324.75;4967967;28;20674;-49
2022/05/23 04:00:35;;;;;;;4.40;4.00;;;;;;;12.13;100.00;96325.53;4963923;28;20211;-46
2022/05/23 04:03:03;;;;;;;3.87;3.57;;;;;;;12.29;100.00;96326.00;4921581;28;20525;-51
2022/05/23 04:05:31;;;;;;;3.67;3.43;;;;;;;12.33;100.00;96329.06;4964896;28;20253;-51
2022/05/23 04:08:00;;;;;;;3.60;3.30;;;;;;;12.66;100.00;96322.66;4933890;28;20293;-52
2022/05/23 04:10:28;;;;;;;3.90;3.60;;;;;;;12.80;100.00;96324.16;4964554;28;20559;-51
2022/05/23 04:12:58;;;;;;;3.67;3.10;;;;;;;12.89;100.00;96316.72;4961261;28;20296;-50
2022/05/23 04:15:26;;;;;;;3.70;3.20;;;;;;;12.96;100.00;96317.47;4965651;28;20232;-54
2022/05/23 04:17:54;;;;;;;3.40;3.20;;;;;;;12.98;100.00;96315.38;4922511;28;21857;-51
2022/05/23 04:20:22;;;;;;;3.53;3.30;;;;;;;12.86;100.00;96323.28;4964025;28;20590;-51
2022/05/23 04:22:51;;;;;;;3.30;3.10;;;;;;;12.76;100.00;96332.81;4937362;28;20411;-50
2022/05/23 04:25:19;;;;;;;4.40;4.00;;;;;;;12.71;100.00;96333.44;4962133;28;20331;-51
2022/05/23 04:27:47;;;;;;;3.87;3.67;;;;;;;12.93;100.00;96339.16;4964967;28;20288;-52
2022/05/23 04:30:17;;;;;;;4.47;3.40;;;;;;;12.94;100.00;96342.66;4958874;28;20226;-54
2022/05/23 04:35:31;;;;;;;4.30;4.00;;;;;;;13.17;100.00;96340.16;4965462;28;20241;-49
2022/05/23 04:37:59;;;;;;;3.63;3.30;;;;;;;13.22;100.00;96328.84;4932812;28;20521;-49
2022/05/23 04:40:28;;;;;;;3.60;3.40;;;;;;;13.16;100.00;96319.09;4966533;28;20685;-54
2022/05/23 04:42:57;;;;;;;3.93;3.33;;;;;;;13.19;100.00;96313.34;4964813;28;20301;-49
2022/05/23 04:45:26;;;;;;;4.27;3.53;;;;;;;13.27;100.00;96304.25;4961262;28;20252;-53
2022/05/23 04:50:40;;;;;;;3.30;3.10;;;;;;;13.62;100.00;96308.16;4925024;28;20307;-54
2022/05/23 04:53:08;;;;;;;3.30;3.10;;;;;;;13.62;100.00;96298.31;4933122;28;20842;-48
2022/05/23 04:55:37;;;;;;;5.47;3.87;;;;;;;13.63;100.00;96289.28;4963868;28;20284;-53
2022/05/23 04:58:05;;;;;;;4.03;3.63;;;;;;;13.68;100.00;96293.94;4961563;28;20813;-52
2022/05/23 05:00:35;;;;;;;3.50;3.30;;;;;;;13.74;100.00;96285.88;4964578;28;20209;-50
2022/05/23 05:03:10;;;;;;;3.57;3.33;;;;;;;13.95;100.00;96293.56;4959159;28;20405;-55
2022/05/23 05:05:38;;;;;;;3.33;3.13;;;;;;;14.09;100.00;96291.53;4926777;28;20619;-50
2022/05/23 05:08:06;;;;;;;3.80;3.50;;;;;;;14.07;100.00;96282.97;4930227;28;20481;-53
2022/05/23 05:10:34;;;;;;;3.93;3.63;;;;;;;14.17;100.00;96280.53;4967189;28;20304;-50
2022/05/23 05:13:03;;;;;;;3.70;3.40;;;;;;;14.11;100.00;96284.13;4967619;28;20296;-51
2022/05/23 05:15:31;;;;;;;2.93;2.83;;;;;;;14.13;100.00;96271.38;4969593;28;20288;-53
2022/05/23 05:18:01;;;;;;;3.27;2.70;;;;;;;14.18;100.00;96279.50;4969099;28;20322;-51
2022/05/23 05:20:29;;;;;;;3.80;3.50;;;;;;;14.10;100.00;96282.50;4970472;28;20575;-52
2022/05/23 05:22:58;;;;;;;4.90;4.50;;;;;;;14.18;100.00;96282.16;4912047;28;20474;-52
2022/05/23 05:25:26;;;;;;;6.60;3.90;;;;;;;14.16;100.00;96277.03;4958170;28;20229;-50
2022/05/23 05:27:54;;;;;;;4.33;3.97;;;;;;;14.16;100.00;96271.72;4967939;28;20593;-47
2022/05/23 05:30:23;;;;;;;3.60;3.37;;;;;;;14.26;100.00;96262.38;4966395;28;20535;-51
2022/05/23 05:32:54;;;;;;;3.80;3.47;;;;;;;14.13;100.00;96266.84;4968102;28;20236;-52
2022/05/23 05:35:28;;;;;;;3.40;3.20;;;;;;;14.15;100.00;96271.97;4937341;28;20252;-49
2022/05/23 05:37:58;;;;;;;3.77;3.57;;;;;;;13.96;100.00;96281.88;4935567;28;20748;-54
2022/05/23 05:40:28;;;;;;;4.13;3.27;;;;;;;13.98;100.00;96275.28;4938146;28;20737;-53
2022/05/23 05:43:00;;;;;;;3.77;3.57;;;;;;;14.14;100.00;96281.78;4969547;28;20233;-53
2022/05/23 05:45:32;;;;;;;4.77;4.33;;;;;;;14.32;100.00;96277.44;4965950;28;20431;-56
2022/05/23 05:48:01;;;;;;;3.50;3.30;;;;;;;14.30;100.00;96282.19;4967326;28;20234;-53
2022/05/23 05:50:46;;;;;;;6.93;4.13;;;;;;;14.32;100.00;96285.44;4966380;28;20411;-52
2022/05/23 05:53:18;;;;;;;4.90;3.33;;;;;;;14.25;100.00;96288.19;4926281;28;20233;-52
2022/05/23 05:55:46;;;;;;;3.40;3.20;;;;;;;14.26;100.00;96292.47;4940243;28;20225;-51
2022/05/23 05:58:15;;;;;;;3.63;3.33;;;;;;;14.57;100.00;96293.22;4967178;28;20770;-49
2022/05/23 06:00:48;;;;;;;3.93;3.67;;;;;;;14.84;100.00;96305.28;4969776;28;20978;-52
2022/05/23 06:03:16;;;;;;;4.43;4.03;;;;;;;15.13;100.00;96302.72;4967266;28;20656;-51
2022/05/23 06:11:27;;;;;;;3.07;2.87;;;;;;;16.47;100.00;96297.16;4939255;28;20309;-52
2022/05/23 06:13:57;;;;;;;3.40;3.10;;;;;;;16.55;100.00;96298.63;4969289;28;21077;-50
2022/05/23 06:16:25;;;;;;;3.33;3.10;;;;;;;16.93;100.00;96297.03;4966803;28;20225;-49
2022/05/23 06:18:54;;;;;;;3.87;3.57;;;;;;;17.00;99.25;96301.41;4967716;28;20229;-56
2022/05/23 06:21:24;;;;;;;3.70;3.50;;;;;;;17.40;99.67;96307.56;4963942;28;20206;-51
2022/05/23 06:23:52;;;;;;;3.30;3.10;;;;;;;18.00;97.94;96305.78;4929542;28;20220;-55
2022/05/23 06:26:22;;;;;;;3.87;3.67;;;;;;;17.99;91.36;96306.03;4947626;28;20247;-49
2022/05/23 06:28:51;;;;;;;3.27;3.07;;;;;;;17.87;93.05;96301.63;4973969;28;20233;-47
2022/05/23 06:31:20;;;;;;;3.70;3.40;;;;;;;18.23;90.99;96304.69;4965855;28;20863;-50
2022/05/23 06:33:49;;;;;;;3.33;3.03;;;;;;;17.76;91.77;96316.00;4971752;28;20209;-48
2022/05/23 06:36:18;;;;;;;3.27;3.17;;;;;;;17.68;91.21;96317.25;4970233;28;20852;-51
2022/05/23 06:38:48;;;;;;;3.30;3.10;;;;;;;17.56;94.07;96320.06;4932611;28;20230;-48
2022/05/23 06:41:17;;;;;;;3.30;3.10;;;;;;;17.54;96.48;96326.72;4948840;28;20222;-50
2022/05/23 06:43:46;;;;;;;3.50;3.20;;;;;;;17.67;95.71;96318.31;4966991;28;20242;-50
2022/05/23 06:46:15;;;;;;;3.33;3.00;;;;;;;17.61;98.43;96328.16;4969403;28;20261;-50
2022/05/23 06:48:43;;;;;;;3.03;2.83;;;;;;;17.30;100.00;96324.28;4969142;28;20197;-52
2022/05/23 06:51:11;;;;;;;3.30;3.10;;;;;;;17.16;100.00;96330.03;4970472;28;20198;-49
2022/05/23 06:53:40;;;;;;;3.40;3.20;;;;;;;17.10;100.00;96336.34;4933330;28;20238;-48
2022/05/23 06:56:10;;;;;;;3.47;3.27;;;;;;;16.85;100.00;96340.25;4971550;28;20256;-54
2022/05/23 06:58:38;;;;;;;3.50;3.37;;;;;;;16.70;100.00;96343.50;4944443;28;20308;-51
2022/05/23 07:01:06;;;;;;;3.50;3.30;;;;;;;16.11;100.00;96347.34;4971287;28;20276;-53
2022/05/23 07:03:35;;;;;;;3.47;3.27;;;;;;;16.03;100.00;96358.41;4969450;28;20408;-51
2022/05/23 07:14:25;;;;;;;3.90;3.70;;;;;;;15.83;100.00;96421.06;4940200;28;20214;-52
2022/05/23 07:16:54;;;;;;;5.80;5.10;;;;;;;15.65;100.00;96445.25;4970123;28;20332;-52
2022/05/23 07:19:22;;;;;;;4.03;3.63;;;;;;;15.56;100.00;96460.81;4967213;28;20257;-49
2022/05/23 07:21:51;;;;;;;4.10;3.80;;;;;;;15.60;100.00;96476.13;4970118;28;20311;-50
2022/05/23 07:24:19;;;;;;;3.53;3.33;;;;;;;15.44;100.00;96495.53;4967292;28;20292;-51
2022/05/23 07:26:48;;;;;;;4.20;3.90;;;;;;;15.59;100.00;96500.41;4931995;28;20233;-54
2022/05/23 07:29:16;;;;;;;3.60;3.40;;;;;;;15.56;100.00;96485.66;4939331;28;20832;-51
2022/05/23 07:31:45;;;;;;;5.10;3.77;;;;;;;15.58;100.00;96472.88;4947292;28;21026;-54
2022/05/23 07:34:13;;;;;;;4.30;3.90;;;;;;;15.73;100.00;96453.72;4969744;28;20205;-53
2022/05/23 07:36:41;;;;;;;7.20;4.50;;;;;;;15.87;100.00;96445.44;4968254;28;20534;-49
2022/05/23 07:39:09;;;;;;;8.93;5.03;;;;;;;15.99;100.00;96448.09;4968982;28;20700;-49
2022/05/23 07:41:38;;;;;;;5.73;4.07;;;;;;;16.28;100.00;96442.78;4931641;28;20380;-49
2022/05/23 07:44:08;;;;;;;4.60;4.10;;;;;;;16.81;100.00;96429.25;4943125;28;20233;-49
2022/05/23 07:46:37;;;;;;;4.27;3.87;;;;;;;17.35;100.00;96426.91;4967522;28;20290;-54
2022/05/23 07:49:06;;;;;;;28.13;6.03;;;;;;;17.67;100.00;96419.31;4952365;28;20313;-54
2022/05/23 07:51:34;;;;;;;3.87;3.57;;;;;;;17.94;100.00;96425.50;4966496;28;20695;-51
2022/05/23 08:02:21;;;;;;;6.55;4.10;;;;;;;17.92;100.00;96406.19;4965319;28;20464;-50
2022/05/23 08:04:49;;;;;;;3.90;3.60;;;;;;;17.94;100.00;96388.00;4953233;28;20264;-56
2022/05/23 08:07:18;;;;;;;4.50;4.07;;;;;;;17.60;100.00;96374.72;4966832;28;20297;-50
2022/05/23 08:09:46;;;;;;;4.40;4.00;;;;;;;17.85;100.00;96360.03;4965974;28;20502;-49
2022/05/23 08:12:15;;;;;;;3.93;3.60;;;;;;;17.87;100.00;96341.03;4932283;28;20218;-49
2022/05/23 08:14:45;;;;;;;8.27;4.77;;;;;;;17.82;100.00;96325.72;4964438;28;20778;-51
2022/05/23 08:17:13;;;;;;;5.37;3.83;;;;;;;18.17;100.00;96304.88;4941238;28;20667;-52
2022/05/23 08:19:41;;;;;;;6.00;3.70;;;;;;;18.18;100.00;96280.53;4949579;28;20854;-47
2022/05/23 08:22:10;;;;;;;4.73;3.03;;;;;;;18.32;100.00;96264.00;4968324;28;20333;-49
2022/05/23 08:24:39;;;;;;;4.83;3.50;;;;;;;18.19;100.00;96260.69;4964942;28;20451;-52
2022/05/23 08:27:07;;;;;;;4.13;3.67;;;;;;;18.21;100.00;96247.84;4971010;28;20248;-53
2022/05/23 08:29:36;;;;;;;3.60;3.30;;;;;;;18.56;100.00;96240.34;4915908;28;20752;-54
2022/05/23 08:32:10;;;;;;;3.60;3.33;;;;;;;18.41;100.00;96243.72;4942350;28;20210;-48
2022/05/23 08:34:38;;;;;;;3.90;3.60;;;;;;;18.17;100.00;96240.56;4954473;28;20695;-51
2022/05/23 08:37:06;;;;;;;3.90;3.70;;;;;;;18.15;100.00;96243.50;4954866;28;20296;-52
2022/05/23 08:39:35;;;;;;;3.93;3.50;;;;;;;17.87;100.00;96255.31;4966682;28;20309;-51
2022/05/23 08:42:07;;;;;;;3.80;3.50;;;;;;;17.73;100.00;96247.66;4968953;28;20392;-48
2022/05/23 08:44:43;;;;;;;3.97;3.50;;;;;;;18.06;100.00;96202.97;4937731;28;20576;-49
2022/05/23 08:47:17;;;;;;;3.50;3.20;;;;;;;18.21;100.00;96162.06;4943995;28;20217;-49
2022/05/23 08:49:48;;;;;;;3.57;3.33;;;;;;;18.40;99.98;96155.47;4957102;28;20913;-51
2022/05/23 08:52:23;;;;;;;4.43;3.47;;;;;;;18.99;100.00;96196.56;4954764;28;20315;-50
2022/05/23 08:54:57;;;;;;;3.17;2.87;;;;;;;19.18;100.00;96219.19;4970165;28;20733;-54
2022/05/23 08:57:32;;;;;;;3.50;3.30;;;;;;;19.02;97.60;96221.00;4967296;28;20337;-54
2022/05/23 09:00:05;;;;;;;3.33;3.03;;;;;;;19.01;97.87;96210.53;4937656;28;20565;-53
2022/05/23 09:02:48;;;;;;;3.43;3.23;;;;;;;19.43;93.43;96185.44;4946067;28;20879;-56
2022/05/23 09:05:20;;;;;;;3.03;2.83;;;;;;;19.44;88.19;96165.56;4953358;28;20229;-49
2022/05/23 09:08:11;;;;;;;3.20;2.70;;;;;;;19.66;87.79;96148.38;4970720;28;20649;-51
2022/05/23 09:10:42;;;;;;;3.20;3.00;;;;;;;19.29;90.19;96136.78;4971547;28;20220;-48
2022/05/23 09:13:11;;;;;;;2.90;2.70;;;;;;;19.13;93.29;96132.44;4950119;28;20311;-49
2022/05/23 09:15:39;;;;;;;3.37;3.10;;;;;;;19.31;95.22;96126.59;4931641;28;20607;-48
2022/05/23 09:18:18;;;;;;;3.83;3.50;;;;;;;19.34;96.15;96111.81;4941431;28;21068;-52
2022/05/23 09:20:48;;;;;;;6.40;3.03;;;;;;;19.32;98.46;96098.66;4963915;28;20460;-51
2022/05/23 09:23:24;;;;;;;5.57;3.57;;;;;;;19.25;99.64;96092.75;4953373;28;20214;-49
2022/05/23 09:25:58;;;;;;;3.00;2.83;;;;;;;19.24;100.00;96091.13;4972056;28;20347;-51
2022/05/23 09:28:31;;;;;;;2.87;2.77;;;;;;;19.26;98.74;96088.16;4969743;28;20800;-54
2022/05/23 09:31:02;;;;;;;3.83;3.53;;;;;;;19.21;100.00;96097.03;4936292;28;20276;-53
2022/05/23 09:33:32;;;;;;;3.53;3.23;;;;;;;19.06;100.00;96103.19;4938520;28;20785;-54
2022/05/23 09:36:11;;;;;;;5.97;3.17;;;;;;;18.85;100.00;96115.72;4970859;28;20562;-54
2022/05/23 09:38:48;;;;;;;3.23;3.03;;;;;;;18.99;100.00;96108.00;4958548;28;20209;-51
2022/05/23 09:47:49;;;;;;;3.70;3.40;;;;;;;18.96;98.55;96050.25;4918912;28;20540;-56
2022/05/23 09:50:36;;;;;;;4.30;3.93;;;;;;;19.18;98.59;96050.03;4968096;28;20285;-51
2022/05/23 09:53:21;;;;;;;4.20;3.27;;;;;;;19.67;100.00;96046.00;4971316;28;20245;-51
2022/05/23 09:55:49;;;;;;;2.60;2.50;;;;;;;20.36;98.63;96039.44;4970646;28;20320;-56
2022/05/23 09:58:27;;;;;;;2.83;2.70;;;;;;;20.45;88.58;96031.56;4967987;28;20312;-52
2022/05/23 10:00:58;;;;;;;2.63;2.40;;;;;;;21.34;78.83;96033.47;4936314;28;20488;-55
2022/05/23 10:03:28;;;;;;;4.60;2.60;;;;;;;21.22;71.90;96024.97;4945066;28;20731;-56
2022/05/23 10:06:07;;;;;;;3.30;2.80;;;;;;;21.92;71.30;96039.19;4970692;28;20230;-54
2022/05/23 10:08:38;;;;;;;4.00;2.20;;;;;;;22.91;62.06;96041.56;4972598;28;20440;-53
2022/05/23 10:11:08;;;;;;;3.97;2.43;;;;;;;23.01;57.78;96040.63;4955468;28;20238;-52
2022/05/23 10:13:37;;;;;;;3.13;2.40;;;;;;;22.67;56.68;96045.13;4971410;28;20397;-51
2022/05/23 10:16:14;;;;;;;2.60;2.40;;;;;;;22.17;53.96;96050.81;4933670;28;20230;-54
2022/05/23 10:18:47;;;;;;;3.03;2.23;;;;;;;22.22;53.10;96048.88;4944162;28;20256;-54
2022/05/23 10:21:27;;;;;;;2.97;2.17;;;;;;;22.45;56.42;96041.03;4964202;28;20321;-50
2022/05/23 10:24:13;;;;;;;2.30;2.20;;;;;;;22.96;50.17;96030.72;4969162;28;20292;-57
2022/05/23 10:26:46;;;;;;;3.27;2.60;;;;;;;23.56;48.85;96040.88;4955952;28;20235;-52
2022/05/23 10:29:18;;;;;;;2.80;2.20;;;;;;;23.22;51.38;96024.91;4968240;28;20730;-50
2022/05/23 10:31:49;;;;;;;5.13;2.30;;;;;;;23.19;50.45;96022.78;4935767;28;20690;-52
2022/05/23 10:34:30;;;;;;;1.97;1.87;;;;;;;23.60;54.98;96026.78;4947541;28;20202;-50
2022/05/23 10:37:02;;;;;;;2.20;2.00;;;;;;;23.57;51.06;96028.16;4967636;28;20303;-52
2022/05/23 10:42:22;;;;;;;2.50;2.30;;;;;;;22.36;53.32;96027.41;4958306;28;20205;-50
2022/05/23 10:45:06;;;;;;;4.47;2.30;;;;;;;22.09;56.79;96022.56;4968568;28;20213;-54
2022/05/23 10:47:45;;;;;;;7.07;2.37;;;;;;;22.23;57.03;96023.50;4908948;28;20311;-51
2022/05/23 10:50:20;;;;;;;1.80;1.70;;;;;;;22.49;53.56;96031.31;4946347;28;20340;-56
2022/05/23 10:52:56;;;;;;;2.00;1.90;;;;;;;22.59;51.11;96030.38;4952409;28;20473;-55
2022/05/23 10:55:32;;;;;;;3.37;2.33;;;;;;;22.67;52.86;96028.94;4968862;28;20541;-52
2022/05/23 10:58:08;;;;;;;2.57;2.17;;;;;;;22.64;53.14;96033.00;4966804;28;20209;-57
2022/05/23 11:00:44;;;;;;;4.50;2.13;;;;;;;22.53;48.45;96039.63;4967066;28;20676;-53
2022/05/23 11:03:19;;;;;;;3.07;1.87;;;;;;;22.56;49.99;96055.25;4933236;28;20363;-57
2022/05/23 11:05:51;;;;;;;3.20;1.73;;;;;;;22.81;50.83;96047.91;4926891;28;20460;-55
2022/05/23 11:08:34;;;;;;;1.90;1.80;;;;;;;22.90;49.43;96048.06;4968618;28;20289;-56
2022/05/23 11:11:07;;;;;;;2.83;2.20;;;;;;;22.52;52.20;96052.31;4958561;28;20233;-54
2022/05/23 11:13:47;;;;;;;2.87;1.67;;;;;;;22.46;53.89;96055.38;4964026;28;21615;-52
2022/05/23 11:16:21;;;;;;;3.37;3.10;;;;;;;22.57;53.11;96058.78;4968338;28;20635;-54
2022/05/23 11:19:01;;;;;;;4.23;2.60;;;;;;;23.04;50.68;96050.81;4930495;28;21810;-57
2022/05/23 11:21:36;;;;;;;2.00;1.90;;;;;;;22.79;51.86;96052.81;4941781;28;20400;-53
2022/05/23 11:24:10;;;;;;;2.50;2.27;;;;;;;22.76;54.20;96054.19;4968371;28;20312;-55
2022/05/23 11:26:42;;;;;;;6.63;2.83;;;;;;;23.46;51.61;96048.34;4955274;28;20311;-49
2022/05/23 11:34:58;;;;;;;6.63;2.67;;;;;;;23.04;49.31;96037.31;4950624;28;20307;-51
2022/05/23 11:37:45;;;;;;;2.37;2.17;;;;;;;22.78;51.77;96026.91;4963839;28;20300;-51
2022/05/23 11:40:17;;;;;;;4.20;2.57;;;;;;;23.02;53.46;96032.22;4984814;28;20545;-53
2022/05/23 11:42:55;;;;;;;2.40;2.30;;;;;;;23.20;53.36;96021.69;4970405;28;20396;-51
2022/05/23 11:48:58;;;;;;;3.60;2.20;;;;;;;23.16;53.21;96040.41;4946099;28;20684;-52
2022/05/23 11:51:36;;;;;;;2.38;2.17;;;;;;;23.34;58.53;96029.88;4966867;28;20844;-55
2022/05/23 11:54:22;;;;;;;2.27;2.17;;;;;;;23.22;52.13;96023.00;4983089;28;20215;-54
2022/05/23 11:57:15;;;;;;;2.60;2.30;;;;;;;23.38;50.45;96020.09;4965647;28;20239;-57
2022/05/23 12:00:21;;;;;;;2.60;2.40;;;;;;;23.89;48.29;96015.69;4967399;28;20399;-54
2022/05/23 12:03:08;;;;;;;2.43;2.23;;;;;;;24.21;44.82;96014.03;4961501;28;20216;-53
2022/05/23 12:05:37;;;;;;;6.53;2.20;;;;;;;24.51;43.75;96019.94;4931689;28;20229;-49
2022/05/23 12:08:07;;;;;;;2.23;2.00;;;;;;;24.87;43.51;96023.03;4959778;28;20221;-52
2022/05/23 12:10:46;;;;;;;2.40;2.23;;;;;;;25.29;42.05;96023.66;4974919;28;20644;-50
2022/05/23 12:13:46;;;;;;;1.57;1.43;;;;;;;25.11;41.17;96022.75;4971640;28;20279;-55
2022/05/23 12:16:41;;;;;;;2.93;1.70;;;;;;;25.33;41.75;96030.06;4966871;28;20964;-54
2022/05/23 12:19:28;;;;;;;5.13;2.40;;;;;;;25.21;42.07;96008.94;4945769;28;20209;-57
2022/05/23 12:22:17;;;;;;;2.20;2.10;;;;;;;24.99;41.48;95998.88;4931600;28;20205;-54
2022/05/23 12:25:23;;;;;;;3.90;1.93;;;;;;;24.62;42.50;95998.84;4955989;28;20239;-52
2022/05/23 12:28:14;;;;;;;3.22;1.90;;;;;;;24.08;44.23;96012.94;4951603;28;21739;-55
2022/05/23 12:30:46;;;;;;;2.63;2.00;;;;;;;23.90;45.97;96014.59;4983004;28;20287;-52
2022/05/23 12:33:32;;;;;;;4.97;2.13;;;;;;;23.82;48.68;95993.66;4977988;28;20638;-52
2022/05/23 12:36:08;;;;;;;2.77;2.57;;;;;;;23.36;46.99;95987.16;4946638;28;20319;-58
2022/05/23 12:39:01;;;;;;;1.77;1.67;;;;;;;24.72;46.05;95984.28;4940907;28;20327;-52
2022/05/23 12:41:50;;;;;;;2.55;2.35;;;;;;;26.50;40.61;95991.22;4952378;28;21314;-55
2022/05/23 12:44:57;;;;;;;2.87;1.93;;;;;;;26.55;38.26;95993.00;4951166;28;20221;-57
2022/05/23 12:47:40;;;;;;;1.60;1.60;;;;;;;26.11;39.20;95988.22;4965053;28;20411;-56
2022/05/23 12:50:19;;;;;;;6.43;2.07;;;;;;;25.93;39.69;95975.72;4969215;28;20288;-53
2022/05/23 12:53:04;;;;;;;1.90;1.80;;;;;;;25.09;42.16;95974.25;4935020;28;20217;-54
2022/05/23 12:55:44;;;;;;;3.80;2.25;;;;;;;24.84;45.44;95976.47;4909183;28;20463;-57